sensor_id;sensor_type;location;lat;lon;timestamp;P1;durP1;ratioP1;P2;durP2;ratioP2
39264;SDS011;42646;51.910;7.724;2024-02-21T00:00:04;18.80;;;11.50;;
39264;SDS011;42646;51.910;7.724;2024-02-21T00:02:33;18.55;;;10.43;;
39264;SDS011;42646;51.910;7.724;2024-02-21T00:05:00;21.58;;;11.50;;
39264;SDS011;42646;51.910;7.724;2024-02-21T00:07:29;25.30;;;11.50;;
39264;SDS011;42646;51.910;7.724;2024-02-21T00:09:57;19.10;;;10.45;;
39264;SDS011;42646;51.910;7.724;2024-02-21T00:12:25;24.83;;;12.00;;
39264;SDS011;42646;51.910;7.724;2024-02-21T00:14:54;20.33;;;11.77;;
39264;SDS011;42646;51.910;7.724;2024-02-21T00:17:21;22.35;;;10.95;;
39264;SDS011;42646;51.910;7.724;2024-02-21T00:19:49;20.88;;;11.60;;
39264;SDS011;42646;51.910;7.724;2024-02-21T00:22:17;18.77;;;11.30;;
39264;SDS011;42646;51.910;7.724;2024-02-21T00:24:45;23.70;;;12.10;;
39264;SDS011;42646;51.910;7.724;2024-02-21T00:27:13;23.27;;;12.32;;
39264;SDS011;42646;51.910;7.724;2024-02-21T00:29:40;22.92;;;11.82;;
39264;SDS011;42646;51.910;7.724;2024-02-21T00:32:09;22.23;;;12.82;;
39264;SDS011;42646;51.910;7.724;2024-02-21T00:34:37;21.02;;;11.73;;
39264;SDS011;42646;51.910;7.724;2024-02-21T00:37:05;20.17;;;12.07;;
39264;SDS011;42646;51.910;7.724;2024-02-21T00:39:33;22.40;;;12.43;;
39264;SDS011;42646;51.910;7.724;2024-02-21T00:42:01;23.92;;;13.00;;
39264;SDS011;42646;51.910;7.724;2024-02-21T00:44:28;21.20;;;12.20;;
39264;SDS011;42646;51.910;7.724;2024-02-21T00:46:56;24.85;;;12.00;;
39264;SDS011;42646;51.910;7.724;2024-02-21T00:49:25;20.52;;;12.05;;
39264;SDS011;42646;51.910;7.724;2024-02-21T00:51:53;25.00;;;13.45;;
39264;SDS011;42646;51.910;7.724;2024-02-21T00:54:21;21.58;;;13.05;;
39264;SDS011;42646;51.910;7.724;2024-02-21T00:56:49;22.27;;;12.70;;
39264;SDS011;42646;51.910;7.724;2024-02-21T00:59:16;24.02;;;12.90;;
39264;SDS011;42646;51.910;7.724;2024-02-21T01:01:45;26.00;;;12.75;;
39264;SDS011;42646;51.910;7.724;2024-02-21T01:04:13;20.60;;;11.82;;
39264;SDS011;42646;51.910;7.724;2024-02-21T01:06:42;21.33;;;11.88;;
39264;SDS011;42646;51.910;7.724;2024-02-21T01:09:10;23.90;;;12.18;;
39264;SDS011;42646;51.910;7.724;2024-02-21T01:11:38;24.63;;;13.00;;
39264;SDS011;42646;51.910;7.724;2024-02-21T01:14:06;23.38;;;12.90;;
39264;SDS011;42646;51.910;7.724;2024-02-21T01:16:34;23.63;;;12.05;;
39264;SDS011;42646;51.910;7.724;2024-02-21T01:19:01;25.15;;;12.00;;
39264;SDS011;42646;51.910;7.724;2024-02-21T01:21:29;22.50;;;12.60;;
39264;SDS011;42646;51.910;7.724;2024-02-21T01:23:58;25.52;;;12.77;;
39264;SDS011;42646;51.910;7.724;2024-02-21T01:26:26;24.90;;;12.77;;
39264;SDS011;42646;51.910;7.724;2024-02-21T01:28:54;23.67;;;13.05;;
39264;SDS011;42646;51.910;7.724;2024-02-21T01:31:22;27.83;;;13.65;;
39264;SDS011;42646;51.910;7.724;2024-02-21T01:33:49;24.27;;;12.85;;
39264;SDS011;42646;51.910;7.724;2024-02-21T01:36:17;25.42;;;13.45;;
39264;SDS011;42646;51.910;7.724;2024-02-21T01:38:45;30.63;;;15.77;;
39264;SDS011;42646;51.910;7.724;2024-02-21T01:41:14;25.77;;;13.25;;
39264;SDS011;42646;51.910;7.724;2024-02-21T01:43:42;25.98;;;12.88;;
39264;SDS011;42646;51.910;7.724;2024-02-21T01:46:11;31.00;;;14.27;;
39264;SDS011;42646;51.910;7.724;2024-02-21T01:48:39;26.48;;;13.85;;
39264;SDS011;42646;51.910;7.724;2024-02-21T01:51:07;25.27;;;12.77;;
39264;SDS011;42646;51.910;7.724;2024-02-21T02:14:29;24.83;;;13.25;;
39264;SDS011;42646;51.910;7.724;2024-02-21T02:17:45;22.83;;;13.45;;
39264;SDS011;42646;51.910;7.724;2024-02-21T02:21:04;23.08;;;11.07;;
39264;SDS011;42646;51.910;7.724;2024-02-21T02:24:26;25.30;;;13.38;;
39264;SDS011;42646;51.910;7.724;2024-02-21T02:58:24;25.58;;;11.63;;
39264;SDS011;42646;51.910;7.724;2024-02-21T03:00:50;22.42;;;11.35;;
39264;SDS011;42646;51.910;7.724;2024-02-21T03:03:16;26.98;;;11.90;;
39264;SDS011;42646;51.910;7.724;2024-02-21T04:08:16;20.52;;;9.50;;
39264;SDS011;42646;51.910;7.724;2024-02-21T04:10:44;17.35;;;9.88;;
39264;SDS011;42646;51.910;7.724;2024-02-21T04:13:12;19.90;;;9.88;;
39264;SDS011;42646;51.910;7.724;2024-02-21T04:15:40;19.58;;;10.52;;
39264;SDS011;42646;51.910;7.724;2024-02-21T04:18:07;18.27;;;9.50;;
39264;SDS011;42646;51.910;7.724;2024-02-21T04:20:35;16.13;;;9.45;;
39264;SDS011;42646;51.910;7.724;2024-02-21T04:23:03;19.02;;;9.25;;
39264;SDS011;42646;51.910;7.724;2024-02-21T04:25:32;16.42;;;9.27;;
39264;SDS011;42646;51.910;7.724;2024-02-21T04:28:00;19.23;;;9.18;;
39264;SDS011;42646;51.910;7.724;2024-02-21T04:30:27;15.02;;;8.63;;
39264;SDS011;42646;51.910;7.724;2024-02-21T04:32:55;15.82;;;8.15;;
39264;SDS011;42646;51.910;7.724;2024-02-21T04:35:23;18.35;;;9.48;;
39264;SDS011;42646;51.910;7.724;2024-02-21T04:37:50;18.42;;;8.25;;
39264;SDS011;42646;51.910;7.724;2024-02-21T04:40:18;18.75;;;8.68;;
39264;SDS011;42646;51.910;7.724;2024-02-21T04:42:47;14.13;;;7.88;;
39264;SDS011;42646;51.910;7.724;2024-02-21T04:45:15;13.90;;;7.50;;
39264;SDS011;42646;51.910;7.724;2024-02-21T04:47:43;16.67;;;8.30;;
39264;SDS011;42646;51.910;7.724;2024-02-21T04:50:11;15.35;;;8.05;;
39264;SDS011;42646;51.910;7.724;2024-02-21T04:52:40;18.67;;;8.40;;
39264;SDS011;42646;51.910;7.724;2024-02-21T04:55:07;14.18;;;8.15;;
39264;SDS011;42646;51.910;7.724;2024-02-21T04:57:35;17.50;;;8.38;;
39264;SDS011;42646;51.910;7.724;2024-02-21T05:00:05;13.85;;;7.95;;
39264;SDS011;42646;51.910;7.724;2024-02-21T05:02:33;18.95;;;7.88;;
39264;SDS011;42646;51.910;7.724;2024-02-21T05:05:01;13.20;;;7.18;;
39264;SDS011;42646;51.910;7.724;2024-02-21T05:07:29;18.73;;;7.97;;
39264;SDS011;42646;51.910;7.724;2024-02-21T05:09:57;12.55;;;7.45;;
39264;SDS011;42646;51.910;7.724;2024-02-21T05:12:25;14.82;;;7.25;;
39264;SDS011;42646;51.910;7.724;2024-02-21T05:14:52;15.10;;;7.90;;
39264;SDS011;42646;51.910;7.724;2024-02-21T05:17:21;13.85;;;7.15;;
39264;SDS011;42646;51.910;7.724;2024-02-21T05:19:49;14.32;;;7.70;;
39264;SDS011;42646;51.910;7.724;2024-02-21T05:22:17;14.68;;;7.40;;
39264;SDS011;42646;51.910;7.724;2024-02-21T05:24:45;17.33;;;7.70;;
39264;SDS011;42646;51.910;7.724;2024-02-21T05:27:12;15.80;;;7.53;;
39264;SDS011;42646;51.910;7.724;2024-02-21T05:29:40;13.18;;;7.43;;
39264;SDS011;42646;51.910;7.724;2024-02-21T05:32:08;11.90;;;7.63;;
39264;SDS011;42646;51.910;7.724;2024-02-21T05:34:37;19.30;;;8.75;;
39264;SDS011;42646;51.910;7.724;2024-02-21T05:37:05;17.58;;;8.65;;
39264;SDS011;42646;51.910;7.724;2024-02-21T05:39:32;15.90;;;8.07;;
39264;SDS011;42646;51.910;7.724;2024-02-21T05:42:00;17.10;;;8.35;;
39264;SDS011;42646;51.910;7.724;2024-02-21T05:44:28;14.77;;;8.35;;
39264;SDS011;42646;51.910;7.724;2024-02-21T05:46:55;19.73;;;9.05;;
39264;SDS011;42646;51.910;7.724;2024-02-21T05:49:23;20.00;;;8.93;;
39264;SDS011;42646;51.910;7.724;2024-02-21T05:51:52;18.02;;;8.65;;
39264;SDS011;42646;51.910;7.724;2024-02-21T05:54:20;14.80;;;8.27;;
39264;SDS011;42646;51.910;7.724;2024-02-21T05:56:48;17.15;;;8.30;;
39264;SDS011;42646;51.910;7.724;2024-02-21T05:59:15;16.65;;;8.00;;
39264;SDS011;42646;51.910;7.724;2024-02-21T06:01:43;18.63;;;8.63;;
39264;SDS011;42646;51.910;7.724;2024-02-21T06:04:11;17.98;;;9.55;;
39264;SDS011;42646;51.910;7.724;2024-02-21T06:06:39;16.38;;;8.50;;
39264;SDS011;42646;51.910;7.724;2024-02-21T06:09:08;16.67;;;8.45;;
39264;SDS011;42646;51.910;7.724;2024-02-21T06:11:35;18.08;;;8.68;;
39264;SDS011;42646;51.910;7.724;2024-02-21T06:14:04;20.33;;;8.63;;
39264;SDS011;42646;51.910;7.724;2024-02-21T06:16:32;17.55;;;8.63;;
39264;SDS011;42646;51.910;7.724;2024-02-21T06:18:59;15.80;;;8.20;;
39264;SDS011;42646;51.910;7.724;2024-02-21T06:21:28;19.48;;;8.35;;
39264;SDS011;42646;51.910;7.724;2024-02-21T06:23:56;18.90;;;8.15;;
39264;SDS011;42646;51.910;7.724;2024-02-21T06:26:25;18.20;;;7.78;;
39264;SDS011;42646;51.910;7.724;2024-02-21T06:28:53;18.35;;;8.18;;
39264;SDS011;42646;51.910;7.724;2024-02-21T06:31:21;17.77;;;8.23;;
39264;SDS011;42646;51.910;7.724;2024-02-21T06:33:48;15.90;;;7.72;;
39264;SDS011;42646;51.910;7.724;2024-02-21T06:36:16;14.95;;;7.35;;
39264;SDS011;42646;51.910;7.724;2024-02-21T06:38:44;15.52;;;7.65;;
39264;SDS011;42646;51.910;7.724;2024-02-21T06:41:14;16.17;;;7.25;;
39264;SDS011;42646;51.910;7.724;2024-02-21T06:43:43;15.77;;;7.85;;
39264;SDS011;42646;51.910;7.724;2024-02-21T06:46:12;15.20;;;7.90;;
39264;SDS011;42646;51.910;7.724;2024-02-21T06:48:39;13.05;;;6.95;;
39264;SDS011;42646;51.910;7.724;2024-02-21T06:51:12;17.38;;;7.75;;
39264;SDS011;42646;51.910;7.724;2024-02-21T06:53:40;13.23;;;6.97;;
39264;SDS011;42646;51.910;7.724;2024-02-21T06:56:08;12.07;;;6.80;;
39264;SDS011;42646;51.910;7.724;2024-02-21T06:58:35;13.57;;;7.00;;
39264;SDS011;42646;51.910;7.724;2024-02-21T07:01:04;14.45;;;6.68;;
39264;SDS011;42646;51.910;7.724;2024-02-21T07:03:32;16.52;;;6.63;;
39264;SDS011;42646;51.910;7.724;2024-02-21T07:06:01;17.25;;;6.57;;
39264;SDS011;42646;51.910;7.724;2024-02-21T07:08:29;14.48;;;6.70;;
39264;SDS011;42646;51.910;7.724;2024-02-21T07:10:57;15.80;;;6.25;;
39264;SDS011;42646;51.910;7.724;2024-02-21T07:13:25;16.35;;;6.90;;
39264;SDS011;42646;51.910;7.724;2024-02-21T07:15:53;10.85;;;5.63;;
39264;SDS011;42646;51.910;7.724;2024-02-21T07:18:22;14.63;;;6.15;;
39264;SDS011;42646;51.910;7.724;2024-02-21T07:20:51;16.55;;;6.40;;
39264;SDS011;42646;51.910;7.724;2024-02-21T07:23:19;13.00;;;6.05;;
39264;SDS011;42646;51.910;7.724;2024-02-21T07:25:47;12.43;;;5.53;;
39264;SDS011;42646;51.910;7.724;2024-02-21T07:28:15;12.68;;;5.40;;
39264;SDS011;42646;51.910;7.724;2024-02-21T07:30:43;13.45;;;5.22;;
39264;SDS011;42646;51.910;7.724;2024-02-21T07:33:11;13.55;;;5.53;;
39264;SDS011;42646;51.910;7.724;2024-02-21T07:35:40;13.32;;;5.63;;
39264;SDS011;42646;51.910;7.724;2024-02-21T07:38:11;11.13;;;5.38;;
39264;SDS011;42646;51.910;7.724;2024-02-21T07:40:39;13.50;;;5.63;;
39264;SDS011;42646;51.910;7.724;2024-02-21T07:43:07;13.88;;;5.20;;
39264;SDS011;42646;51.910;7.724;2024-02-21T07:45:34;12.30;;;5.32;;
39264;SDS011;42646;51.910;7.724;2024-02-21T07:48:02;11.15;;;5.50;;
39264;SDS011;42646;51.910;7.724;2024-02-21T07:50:31;13.90;;;5.70;;
39264;SDS011;42646;51.910;7.724;2024-02-21T07:53:00;10.77;;;4.90;;
39264;SDS011;42646;51.910;7.724;2024-02-21T07:55:28;12.00;;;5.00;;
39264;SDS011;42646;51.910;7.724;2024-02-21T07:57:56;11.05;;;4.82;;
39264;SDS011;42646;51.910;7.724;2024-02-21T08:00:24;12.15;;;5.00;;
39264;SDS011;42646;51.910;7.724;2024-02-21T08:02:51;9.57;;;4.70;;
39264;SDS011;42646;51.910;7.724;2024-02-21T08:05:19;11.80;;;4.72;;
39264;SDS011;42646;51.910;7.724;2024-02-21T08:07:48;10.85;;;4.90;;
39264;SDS011;42646;51.910;7.724;2024-02-21T08:10:17;10.18;;;4.65;;
39264;SDS011;42646;51.910;7.724;2024-02-21T08:12:45;9.48;;;5.10;;
39264;SDS011;42646;51.910;7.724;2024-02-21T08:15:12;9.60;;;4.65;;
39264;SDS011;42646;51.910;7.724;2024-02-21T08:17:42;10.95;;;4.88;;
39264;SDS011;42646;51.910;7.724;2024-02-21T08:20:10;12.70;;;5.22;;
39264;SDS011;42646;51.910;7.724;2024-02-21T08:22:38;10.00;;;4.88;;
39264;SDS011;42646;51.910;7.724;2024-02-21T08:25:06;11.20;;;4.85;;
39264;SDS011;42646;51.910;7.724;2024-02-21T08:27:35;9.73;;;4.60;;
39264;SDS011;42646;51.910;7.724;2024-02-21T08:30:05;10.88;;;4.70;;
39264;SDS011;42646;51.910;7.724;2024-02-21T08:32:34;11.73;;;4.75;;
39264;SDS011;42646;51.910;7.724;2024-02-21T08:35:02;12.50;;;4.65;;
39264;SDS011;42646;51.910;7.724;2024-02-21T08:37:31;11.43;;;4.45;;
39264;SDS011;42646;51.910;7.724;2024-02-21T08:39:59;8.73;;;4.13;;
39264;SDS011;42646;51.910;7.724;2024-02-21T08:45:01;9.38;;;4.00;;
39264;SDS011;42646;51.910;7.724;2024-02-21T08:47:29;10.50;;;4.30;;
39264;SDS011;42646;51.910;7.724;2024-02-21T08:49:56;9.20;;;3.90;;
39264;SDS011;42646;51.910;7.724;2024-02-21T08:52:27;9.93;;;4.90;;
39264;SDS011;42646;51.910;7.724;2024-02-21T08:54:55;10.10;;;4.00;;
39264;SDS011;42646;51.910;7.724;2024-02-21T08:57:23;8.07;;;4.07;;
39264;SDS011;42646;51.910;7.724;2024-02-21T08:59:51;11.73;;;4.53;;
39264;SDS011;42646;51.910;7.724;2024-02-21T09:02:20;10.18;;;4.47;;
39264;SDS011;42646;51.910;7.724;2024-02-21T09:04:48;12.68;;;4.65;;
39264;SDS011;42646;51.910;7.724;2024-02-21T09:07:16;11.07;;;4.68;;
39264;SDS011;42646;51.910;7.724;2024-02-21T09:09:43;8.23;;;4.38;;
39264;SDS011;42646;51.910;7.724;2024-02-21T09:12:11;8.18;;;3.90;;
39264;SDS011;42646;51.910;7.724;2024-02-21T09:14:41;7.70;;;4.60;;
39264;SDS011;42646;51.910;7.724;2024-02-21T09:17:09;10.65;;;4.20;;
39264;SDS011;42646;51.910;7.724;2024-02-21T09:19:40;9.10;;;4.75;;
39264;SDS011;42646;51.910;7.724;2024-02-21T09:22:08;10.90;;;4.60;;
39264;SDS011;42646;51.910;7.724;2024-02-21T09:24:35;8.77;;;4.32;;
39264;SDS011;42646;51.910;7.724;2024-02-21T09:27:03;8.10;;;4.60;;
39264;SDS011;42646;51.910;7.724;2024-02-21T09:29:32;9.60;;;4.30;;
39264;SDS011;42646;51.910;7.724;2024-02-21T09:32:00;12.27;;;4.40;;
39264;SDS011;42646;51.910;7.724;2024-02-21T09:34:29;7.57;;;4.28;;
39264;SDS011;42646;51.910;7.724;2024-02-21T09:36:58;10.18;;;4.20;;
39264;SDS011;42646;51.910;7.724;2024-02-21T09:39:26;10.93;;;4.88;;
39264;SDS011;42646;51.910;7.724;2024-02-21T09:41:56;11.45;;;4.85;;
39264;SDS011;42646;51.910;7.724;2024-02-21T09:44:27;11.95;;;4.65;;
39264;SDS011;42646;51.910;7.724;2024-02-21T09:47:02;10.80;;;5.10;;
39264;SDS011;42646;51.910;7.724;2024-02-21T09:49:32;9.30;;;4.73;;
39264;SDS011;42646;51.910;7.724;2024-02-21T09:52:02;10.50;;;4.95;;
39264;SDS011;42646;51.910;7.724;2024-02-21T09:54:32;10.00;;;3.92;;
39264;SDS011;42646;51.910;7.724;2024-02-21T09:57:00;8.02;;;4.50;;
39264;SDS011;42646;51.910;7.724;2024-02-21T09:59:39;11.88;;;4.82;;
39264;SDS011;42646;51.910;7.724;2024-02-21T10:03:10;8.15;;;3.95;;
39264;SDS011;42646;51.910;7.724;2024-02-21T10:05:37;10.63;;;4.50;;
39264;SDS011;42646;51.910;7.724;2024-02-21T10:08:07;9.40;;;4.43;;
39264;SDS011;42646;51.910;7.724;2024-02-21T10:10:42;9.10;;;4.70;;
39264;SDS011;42646;51.910;7.724;2024-02-21T10:28:02;10.55;;;4.25;;
39264;SDS011;42646;51.910;7.724;2024-02-21T10:30:30;7.90;;;4.30;;
39264;SDS011;42646;51.910;7.724;2024-02-21T10:32:58;9.80;;;4.50;;
39264;SDS011;42646;51.910;7.724;2024-02-21T10:35:26;9.65;;;4.50;;
39264;SDS011;42646;51.910;7.724;2024-02-21T10:37:55;9.90;;;4.85;;
39264;SDS011;42646;51.910;7.724;2024-02-21T10:40:24;10.13;;;4.97;;
39264;SDS011;42646;51.910;7.724;2024-02-21T10:42:55;11.02;;;5.00;;
39264;SDS011;42646;51.910;7.724;2024-02-21T10:45:30;13.18;;;4.88;;
39264;SDS011;42646;51.910;7.724;2024-02-21T10:48:06;12.00;;;4.70;;
39264;SDS011;42646;51.910;7.724;2024-02-21T10:50:40;7.88;;;4.65;;
39264;SDS011;42646;51.910;7.724;2024-02-21T10:53:24;11.85;;;5.47;;
39264;SDS011;42646;51.910;7.724;2024-02-21T10:58:50;11.73;;;5.70;;
39264;SDS011;42646;51.910;7.724;2024-02-21T11:01:19;15.05;;;5.70;;
39264;SDS011;42646;51.910;7.724;2024-02-21T11:03:49;12.70;;;6.07;;
39264;SDS011;42646;51.910;7.724;2024-02-21T11:06:20;10.77;;;5.00;;
39264;SDS011;42646;51.910;7.724;2024-02-21T11:08:58;12.57;;;5.72;;
39264;SDS011;42646;51.910;7.724;2024-02-21T11:11:29;12.20;;;5.75;;
39264;SDS011;42646;51.910;7.724;2024-02-21T11:14:05;10.48;;;5.07;;
39264;SDS011;42646;51.910;7.724;2024-02-21T11:16:39;12.60;;;5.53;;
39264;SDS011;42646;51.910;7.724;2024-02-21T11:19:08;12.65;;;5.43;;
39264;SDS011;42646;51.910;7.724;2024-02-21T11:21:37;13.35;;;5.78;;
39264;SDS011;42646;51.910;7.724;2024-02-21T11:24:05;14.48;;;6.00;;
39264;SDS011;42646;51.910;7.724;2024-02-21T11:26:33;14.38;;;6.35;;
39264;SDS011;42646;51.910;7.724;2024-02-21T11:29:04;11.00;;;5.63;;
39264;SDS011;42646;51.910;7.724;2024-02-21T11:31:39;13.45;;;6.03;;
39264;SDS011;42646;51.910;7.724;2024-02-21T11:34:09;13.18;;;5.70;;
39264;SDS011;42646;51.910;7.724;2024-02-21T11:36:46;14.23;;;6.55;;
39264;SDS011;42646;51.910;7.724;2024-02-21T11:39:18;12.13;;;5.93;;
39264;SDS011;42646;51.910;7.724;2024-02-21T11:41:47;13.82;;;6.03;;
39264;SDS011;42646;51.910;7.724;2024-02-21T11:44:15;10.52;;;6.50;;
39264;SDS011;42646;51.910;7.724;2024-02-21T11:46:44;12.63;;;6.70;;
39264;SDS011;42646;51.910;7.724;2024-02-21T11:49:13;12.48;;;7.07;;
39264;SDS011;42646;51.910;7.724;2024-02-21T11:51:41;13.65;;;7.43;;
39264;SDS011;42646;51.910;7.724;2024-02-21T11:54:08;14.18;;;7.10;;
39264;SDS011;42646;51.910;7.724;2024-02-21T11:56:39;13.18;;;7.07;;
39264;SDS011;42646;51.910;7.724;2024-02-21T11:59:08;14.68;;;7.25;;
39264;SDS011;42646;51.910;7.724;2024-02-21T12:01:36;15.18;;;6.90;;
39264;SDS011;42646;51.910;7.724;2024-02-21T12:04:05;12.93;;;6.93;;
39264;SDS011;42646;51.910;7.724;2024-02-21T12:06:33;15.65;;;6.65;;
39264;SDS011;42646;51.910;7.724;2024-02-21T12:09:01;12.27;;;6.32;;
39264;SDS011;42646;51.910;7.724;2024-02-21T12:11:29;16.75;;;6.70;;
39264;SDS011;42646;51.910;7.724;2024-02-21T12:13:59;13.48;;;6.03;;
39264;SDS011;42646;51.910;7.724;2024-02-21T12:16:30;8.90;;;5.25;;
39264;SDS011;42646;51.910;7.724;2024-02-21T12:18:58;8.57;;;5.22;;
39264;SDS011;42646;51.910;7.724;2024-02-21T12:21:29;13.82;;;6.22;;
39264;SDS011;42646;51.910;7.724;2024-02-21T12:23:59;8.68;;;4.95;;
39264;SDS011;42646;51.910;7.724;2024-02-21T12:26:27;9.35;;;5.10;;
39264;SDS011;42646;51.910;7.724;2024-02-21T12:28:54;10.70;;;5.13;;
39264;SDS011;42646;51.910;7.724;2024-02-21T12:31:22;8.25;;;4.45;;
39264;SDS011;42646;51.910;7.724;2024-02-21T12:33:50;9.82;;;4.82;;
39264;SDS011;42646;51.910;7.724;2024-02-21T12:36:19;9.07;;;5.05;;
39264;SDS011;42646;51.910;7.724;2024-02-21T12:38:48;8.65;;;4.82;;
39264;SDS011;42646;51.910;7.724;2024-02-21T12:41:16;10.82;;;5.13;;
39264;SDS011;42646;51.910;7.724;2024-02-21T12:43:44;9.73;;;4.80;;
39264;SDS011;42646;51.910;7.724;2024-02-21T12:46:11;10.10;;;5.32;;
39264;SDS011;42646;51.910;7.724;2024-02-21T12:48:39;8.85;;;4.60;;
39264;SDS011;42646;51.910;7.724;2024-02-21T12:51:07;12.32;;;5.65;;
39264;SDS011;42646;51.910;7.724;2024-02-21T12:53:35;10.02;;;5.20;;
39264;SDS011;42646;51.910;7.724;2024-02-21T12:56:05;9.73;;;5.32;;
39264;SDS011;42646;51.910;7.724;2024-02-21T12:58:34;9.98;;;5.20;;
39264;SDS011;42646;51.910;7.724;2024-02-21T13:01:01;8.07;;;5.20;;
39264;SDS011;42646;51.910;7.724;2024-02-21T13:03:29;11.27;;;5.28;;
39264;SDS011;42646;51.910;7.724;2024-02-21T13:05:59;10.05;;;5.40;;
39264;SDS011;42646;51.910;7.724;2024-02-21T13:08:27;11.02;;;5.47;;
39264;SDS011;42646;51.910;7.724;2024-02-21T13:10:55;10.93;;;5.80;;
39264;SDS011;42646;51.910;7.724;2024-02-21T13:13:24;12.20;;;5.53;;
39264;SDS011;42646;51.910;7.724;2024-02-21T13:15:52;11.93;;;5.93;;
39264;SDS011;42646;51.910;7.724;2024-02-21T13:18:19;10.30;;;5.43;;
39264;SDS011;42646;51.910;7.724;2024-02-21T13:20:47;9.40;;;5.57;;
39264;SDS011;42646;51.910;7.724;2024-02-21T13:23:15;10.73;;;5.50;;
39264;SDS011;42646;51.910;7.724;2024-02-21T13:25:43;10.85;;;5.68;;
39264;SDS011;42646;51.910;7.724;2024-02-21T13:28:12;10.82;;;5.50;;
39264;SDS011;42646;51.910;7.724;2024-02-21T13:30:42;9.93;;;5.38;;
39264;SDS011;42646;51.910;7.724;2024-02-21T13:33:10;9.38;;;4.80;;
39264;SDS011;42646;51.910;7.724;2024-02-21T13:35:38;9.18;;;4.63;;
39264;SDS011;42646;51.910;7.724;2024-02-21T13:38:06;9.23;;;4.28;;
39264;SDS011;42646;51.910;7.724;2024-02-21T13:40:36;9.07;;;4.60;;
39264;SDS011;42646;51.910;7.724;2024-02-21T13:43:04;9.98;;;4.30;;
39264;SDS011;42646;51.910;7.724;2024-02-21T13:45:35;9.43;;;3.75;;
39264;SDS011;42646;51.910;7.724;2024-02-21T13:48:05;10.30;;;4.45;;
39264;SDS011;42646;51.910;7.724;2024-02-21T13:50:37;10.55;;;3.72;;
39264;SDS011;42646;51.910;7.724;2024-02-21T13:55:36;7.82;;;3.38;;
39264;SDS011;42646;51.910;7.724;2024-02-21T13:58:04;9.00;;;3.63;;
39264;SDS011;42646;51.910;7.724;2024-02-21T14:00:32;8.63;;;3.67;;
39264;SDS011;42646;51.910;7.724;2024-02-21T14:03:02;8.48;;;3.70;;
39264;SDS011;42646;51.910;7.724;2024-02-21T14:05:32;11.00;;;3.83;;
39264;SDS011;42646;51.910;7.724;2024-02-21T14:08:00;8.73;;;2.95;;
39264;SDS011;42646;51.910;7.724;2024-02-21T14:10:27;9.98;;;3.38;;
39264;SDS011;42646;51.910;7.724;2024-02-21T14:12:55;8.90;;;3.67;;
39264;SDS011;42646;51.910;7.724;2024-02-21T14:15:23;7.55;;;3.20;;
39264;SDS011;42646;51.910;7.724;2024-02-21T14:17:51;10.35;;;3.58;;
39264;SDS011;42646;51.910;7.724;2024-02-21T14:20:20;10.52;;;3.10;;
39264;SDS011;42646;51.910;7.724;2024-02-21T14:22:48;8.90;;;3.08;;
39264;SDS011;42646;51.910;7.724;2024-02-21T14:25:16;5.45;;;2.58;;
39264;SDS011;42646;51.910;7.724;2024-02-21T14:27:44;8.45;;;2.60;;
39264;SDS011;42646;51.910;7.724;2024-02-21T14:30:12;8.15;;;3.22;;
39264;SDS011;42646;51.910;7.724;2024-02-21T14:32:40;11.10;;;3.10;;
39264;SDS011;42646;51.910;7.724;2024-02-21T14:35:11;8.10;;;3.08;;
39264;SDS011;42646;51.910;7.724;2024-02-21T14:37:40;10.63;;;3.08;;
39264;SDS011;42646;51.910;7.724;2024-02-21T14:40:08;9.32;;;2.95;;
39264;SDS011;42646;51.910;7.724;2024-02-21T14:42:37;6.70;;;2.75;;
39264;SDS011;42646;51.910;7.724;2024-02-21T14:45:05;7.45;;;2.88;;
39264;SDS011;42646;51.910;7.724;2024-02-21T14:47:34;7.10;;;2.58;;
39264;SDS011;42646;51.910;7.724;2024-02-21T14:50:02;6.70;;;3.13;;
39264;SDS011;42646;51.910;7.724;2024-02-21T14:52:31;7.80;;;2.85;;
39264;SDS011;42646;51.910;7.724;2024-02-21T14:55:00;7.50;;;3.08;;
39264;SDS011;42646;51.910;7.724;2024-02-21T14:57:29;7.75;;;2.60;;
39264;SDS011;42646;51.910;7.724;2024-02-21T14:59:57;9.60;;;3.30;;
39264;SDS011;42646;51.910;7.724;2024-02-21T15:02:26;9.57;;;2.95;;
39264;SDS011;42646;51.910;7.724;2024-02-21T15:04:55;7.78;;;2.42;;
39264;SDS011;42646;51.910;7.724;2024-02-21T15:07:22;8.27;;;2.80;;
39264;SDS011;42646;51.910;7.724;2024-02-21T15:09:51;8.07;;;2.85;;
39264;SDS011;42646;51.910;7.724;2024-02-21T15:12:21;5.97;;;2.80;;
39264;SDS011;42646;51.910;7.724;2024-02-21T15:14:49;8.98;;;3.20;;
39264;SDS011;42646;51.910;7.724;2024-02-21T15:17:17;7.95;;;2.92;;
39264;SDS011;42646;51.910;7.724;2024-02-21T15:19:45;7.78;;;2.80;;
39264;SDS011;42646;51.910;7.724;2024-02-21T15:22:14;8.80;;;2.60;;
39264;SDS011;42646;51.910;7.724;2024-02-21T15:24:42;6.90;;;2.88;;
39264;SDS011;42646;51.910;7.724;2024-02-21T15:29:43;8.10;;;2.83;;
39264;SDS011;42646;51.910;7.724;2024-02-21T15:32:11;7.78;;;2.65;;
39264;SDS011;42646;51.910;7.724;2024-02-21T15:34:38;8.05;;;2.75;;
39264;SDS011;42646;51.910;7.724;2024-02-21T15:37:07;10.82;;;2.60;;
39264;SDS011;42646;51.910;7.724;2024-02-21T15:39:34;7.22;;;2.70;;
39264;SDS011;42646;51.910;7.724;2024-02-21T15:42:02;9.23;;;2.75;;
39264;SDS011;42646;51.910;7.724;2024-02-21T15:44:30;6.68;;;3.50;;
39264;SDS011;42646;51.910;7.724;2024-02-21T15:46:59;8.52;;;3.15;;
39264;SDS011;42646;51.910;7.724;2024-02-21T15:49:28;5.60;;;2.42;;
39264;SDS011;42646;51.910;7.724;2024-02-21T15:51:56;5.78;;;2.70;;
39264;SDS011;42646;51.910;7.724;2024-02-21T15:54:23;8.45;;;2.63;;
39264;SDS011;42646;51.910;7.724;2024-02-21T15:56:54;6.30;;;2.80;;
39264;SDS011;42646;51.910;7.724;2024-02-21T15:59:22;10.18;;;3.35;;
39264;SDS011;42646;51.910;7.724;2024-02-21T16:01:50;6.18;;;2.47;;
39264;SDS011;42646;51.910;7.724;2024-02-21T16:04:19;6.07;;;2.85;;
39264;SDS011;42646;51.910;7.724;2024-02-21T16:06:47;8.15;;;2.85;;
39264;SDS011;42646;51.910;7.724;2024-02-21T16:09:17;8.07;;;2.67;;
39264;SDS011;42646;51.910;7.724;2024-02-21T16:11:45;7.30;;;3.20;;
39264;SDS011;42646;51.910;7.724;2024-02-21T16:14:13;7.63;;;3.10;;
39264;SDS011;42646;51.910;7.724;2024-02-21T16:16:42;9.18;;;3.22;;
39264;SDS011;42646;51.910;7.724;2024-02-21T16:19:11;9.30;;;3.22;;
39264;SDS011;42646;51.910;7.724;2024-02-21T16:21:41;6.88;;;2.78;;
39264;SDS011;42646;51.910;7.724;2024-02-21T16:24:09;7.60;;;3.20;;
39264;SDS011;42646;51.910;7.724;2024-02-21T16:26:37;7.28;;;2.70;;
39264;SDS011;42646;51.910;7.724;2024-02-21T16:29:05;7.18;;;2.90;;
39264;SDS011;42646;51.910;7.724;2024-02-21T16:31:34;7.07;;;2.78;;
39264;SDS011;42646;51.910;7.724;2024-02-21T16:34:03;4.75;;;2.72;;
39264;SDS011;42646;51.910;7.724;2024-02-21T16:36:31;7.43;;;2.75;;
39264;SDS011;42646;51.910;7.724;2024-02-21T16:39:00;9.13;;;2.85;;
39264;SDS011;42646;51.910;7.724;2024-02-21T16:41:29;7.53;;;2.80;;
39264;SDS011;42646;51.910;7.724;2024-02-21T16:43:57;7.32;;;2.50;;
39264;SDS011;42646;51.910;7.724;2024-02-21T16:46:25;5.10;;;2.30;;
39264;SDS011;42646;51.910;7.724;2024-02-21T16:48:52;6.75;;;2.70;;
39264;SDS011;42646;51.910;7.724;2024-02-21T16:51:20;6.53;;;2.85;;
39264;SDS011;42646;51.910;7.724;2024-02-21T16:53:48;6.57;;;2.53;;
39264;SDS011;42646;51.910;7.724;2024-02-21T16:56:17;5.78;;;2.05;;
39264;SDS011;42646;51.910;7.724;2024-02-21T16:58:46;6.97;;;2.75;;
39264;SDS011;42646;51.910;7.724;2024-02-21T17:01:14;7.03;;;2.58;;
39264;SDS011;42646;51.910;7.724;2024-02-21T17:03:42;7.05;;;2.70;;
39264;SDS011;42646;51.910;7.724;2024-02-21T17:06:12;6.60;;;2.70;;